Getzville 2E NY

43° 01' 25"N, 78° 44' 55"W, Elevation 589 ft.
Eastern Time

Hourly observations for the last 72 hours

Date Time Temperature (°F) Humi-
dity

(%)
Wind
(mph)
Pressure Rain (in) Sun
(W/m2)
ET
(in)
Air Dew 6 Hour 1 Hr 3 Hr 6 Hr Day
Alt
(in)
Sea
Level

(mb)
Max Min
23 21:00 21.2 11.3 65 WNW 2 G 6 30.38 1028.6 0.00 0 0.029
23 20:00 20.8 10.9 65 NW 3 G 8 30.38 1028.7 0.00 0 0.028
23 19:00 21.3 12.0 24.8 21.3 67 NNW 3 G 8 30.37 1028.4 0.00 0 0.027
23 18:00 21.5 11.9 66 NNW 3 G 9 30.35 1027.9 0.00 0 0.026
23 17:00 22.5 12.2 64 NW 7 G 12 30.33 1027.0 0.00 11 0.025
23 16:00 23.4 12.7 63 NNW 6 G 14 30.30 1026.2 0.00 60 0.023
23 15:00 23.8 13.0 63 WNW 9 G 14 30.30 1025.9 0.00 160 0.020
23 14:00 23.7 14.0 66 NNW 5 G 12 30.28 1025.6 0.00 244 0.016
23 13:00 21.6 13.0 21.8 17.3 69 WNW 6 G 14 30.28 1025.4 0.00 179 0.013
23 12:00 21.3 13.4 71 WNW 6 G 17 30.28 1025.5 0.00 287 0.010
23 11:00 20.5 12.9 72 W 6 G 19 30.29 1025.9 0.00 425 0.007
23 10:00 19.7 12.8 74 W 2 G 11 30.28 1025.3 0.00 165 0.005
23 09:00 18.7 11.8 74 WNW 5 G 16 30.25 1024.5 0.00 141 0.004
23 08:00 17.4 11.1 76 W 6 G 11 30.22 1023.4 0.00 14 0.004
23 07:00 18.4 11.8 21.3 18.4 75 NW 6 G 11 30.20 1022.6 0.00 0 0.003
23 06:00 18.6 14.8 85 NW 4 G 9 30.16 1021.4 0.00 0 0.003
23 05:00 18.7 15.5 87 WNW 3 G 11 30.13 1020.3 0.00 0 0.003
23 04:00 19.4 15.1 83 WNW 8 G 15 30.11 1019.5 0.00 0 0.003
23 03:00 19.8 15.2 82 W 7 G 13 30.10 1019.3 0.00 0 0.002
23 02:00 20.3 14.5 78 W 7 G 15 30.07 1018.4 0.00 0 0.001
23 01:00 21.3 14.6 24.3 21.2 75 W 6 G 14 30.05 1017.6 0.00 0 0.000
23 00:00 22.1 13.8 70 W 5 G 14 30.04 1017.4 0.00 0 0.032
22 23:00 22.6 14.0 69 W 6 G 11 30.03 1017.1 0.00 0 0.031
22 22:00 22.6 14.9 72 WNW 6 G 14 30.02 1016.7 0.00 0 0.030
22 21:00 21.8 17.2 82 W 4 G 15 30.01 1016.2 0.00 0 0.029
22 20:00 23.8 16.4 73 W 6 G 15 29.99 1015.5 0.00 0 0.028
22 19:00 24.3 16.6 29.7 24.3 72 W 8 G 16 29.96 1014.6 0.00 0 0.027
22 18:00 25.4 17.6 72 W 4 G 15 29.94 1013.8 0.00 0 0.026
22 17:00 26.5 17.0 67 W 7 G 16 29.91 1012.8 0.00 9 0.025
22 16:00 27.6 17.7 66 WNW 8 G 18 29.88 1011.9 0.00 47 0.023
22 15:00 28.4 18.8 67 WNW 10 G 15 29.85 1010.9 0.00 93 0.020
22 14:00 28.8 19.6 68 NW 10 G 20 29.83 1010.2 0.00 62 0.018
22 13:00 29.7 21.5 33.5 29.7 71 NW 9 G 19 29.80 1009.2 0.00 81 0.015
22 12:00 30.7 23.1 73 WNW 11 G 19 29.78 1008.7 0.00 195 0.012
22 11:00 30.4 24.1 77 NW 8 G 15 29.77 1008.1 0.00 125 0.010
22 10:00 31.2 27.8 87 WNW 7 G 11 29.73 1006.9 0.00 56 0.009
22 09:00 31.6 27.6 85 NW 2 G 9 29.70 1005.8 0.00 23 0.008
22 08:00 33.3 26.6 76 W 7 G 17 29.65 1004.2 0.00 0 0.007
22 07:00 33.5 26.4 34.4 33.4 75 W 6 G 14 29.64 1003.6 0.00 0 0.006
22 06:00 33.5 26.4 75 W 5 G 14 29.62 1003.0 0.00 0 0.005
22 05:00 34.0 26.3 73 W 5 G 14 29.61 1002.7 0.00 0 0.004
22 04:00 33.9 26.2 73 W 4 G 18 29.60 1002.4 0.00 0 0.003
22 03:00 33.8 26.4 74 W 4 G 15 29.60 1002.3 0.00 0 0.002
22 02:00 34.4 27.3 75 W 4 G 17 29.58 1001.9 0.00 0 0.001
22 01:00 34.4 28.6 35.9 34.4 79 W 3 G 9 29.57 1001.3 0.00 0 0.000
22 00:00 34.7 28.9 79 W 7 G 15 29.56 1001.0 0.02 0 0.032
21 23:00 35.1 29.9 81 W 3 G 18 29.55 1000.7 0.02 0 0.031
21 22:00 35.9 30.3 80 W 3 G 24 29.54 1000.2 0.02 0 0.030
21 21:00 35.7 31.0 83 WSW 3 G 10 29.53 1000.1 0.02 0 0.029
21 20:00 35.5 30.3 81 SW 1 G 5 29.54 1000.4 0.02 0 0.028
21 19:00 35.3 30.4 36.6 34.9 82 WSW 4 G 11 29.55 1000.7 0.01 0.02 0 0.027
21 18:00 34.9 28.7 78 WSW 5 G 10 29.55 1000.6 0.02 0 0.026
21 17:00 35.3 29.4 79 W 8 G 22 29.54 1000.4 0.02 7 0.025
21 16:00 36.2 30.0 78 WSW 7 G 25 29.53 999.9 0.01 0.01 0.02 63 0.023
21 15:00 36.2 30.6 80 WSW 6 G 21 29.52 999.8 0.01 65 0.021
21 14:00 36.2 30.9 81 WSW 7 G 16 29.52 999.6 0.01 83 0.018
21 13:00 35.9 30.3 35.9 30.6 80 WSW 6 G 18 29.53 1000.1 0.01 0.01 0.01 169 0.015
21 12:00 35.7 30.1 80 WSW 7 G 16 29.56 1000.9 0.01 0.01 137 0.013
21 11:00 35.3 29.4 79 W 7 G 17 29.59 1002.1 0.00 65 0.011
21 10:00 35.2 28.7 77 WSW 5 G 16 29.59 1002.2 0.00 72 0.009
21 09:00 34.5 27.7 76 SW 4 G 14 29.58 1001.9 0.00 58 0.008
21 08:00 34.3 28.2 78 WSW 4 G 12 29.58 1001.9 0.00 7 0.007
21 07:00 30.6 24.3 30.6 24.0 77 SSW 4 G 8 29.60 1002.5 0.00 0 0.006
21 06:00 29.0 22.4 76 SSW 4 G 9 29.63 1003.3 0.00 0 0.005
21 05:00 26.4 19.9 76 SSW 5 G 11 29.64 1003.8 0.00 0 0.004
21 04:00 25.8 19.3 76 SW 4 G 11 29.68 1005.3 0.00 0 0.003
21 03:00 25.8 18.7 74 SSW 5 G 11 29.72 1006.4 0.00 0 0.002
21 02:00 24.8 18.0 75 SSW 4 G 10 29.76 1007.8 0.00 0 0.001
21 01:00 24.0 16.9 24.8 23.0 74 SSW 5 G 8 29.81 1009.5 0.00 0 0.000
21 00:00 23.1 16.0 74 SW 6 G 10 29.86 1011.3 0.00 0 0.024
20 23:00 23.5 15.8 72 SW 6 G 11 29.91 1013.0 0.00 0 0.023
20 22:00 24.6 17.8 75 SSW 5 G 9 29.96 1014.6 0.00 0 0.022

Data generated by WxSolution Version 1.9.1.5, Build 2018.05.20.